sensor_id;sensor_type;location;lat;lon;timestamp;pressure;altitude;pressure_sealevel;temperature;humidity
44198;BME280;30157;55.512;37.764;2023-03-22T00:01:14;99331.41;;;3.39;82.37
44198;BME280;30157;55.512;37.764;2023-03-22T00:03:40;99417.75;;;3.89;82.48
44198;BME280;30157;55.512;37.764;2023-03-22T00:06:07;99350.44;;;3.51;82.38
44198;BME280;30157;55.512;37.764;2023-03-22T00:08:33;99357.28;;;3.54;82.12
44198;BME280;30157;55.512;37.764;2023-03-22T00:11:04;99445.47;;;4.10;82.35
44198;BME280;30157;55.512;37.764;2023-03-22T00:13:34;99420.50;;;4.02;82.09
44198;BME280;30157;55.512;37.764;2023-03-22T00:16:02;99349.66;;;3.57;82.21
44198;BME280;30157;55.512;37.764;2023-03-22T00:18:28;99451.59;;;4.18;81.93
44198;BME280;30157;55.512;37.764;2023-03-22T00:20:56;99447.31;;;4.18;81.83
44198;BME280;30157;55.512;37.764;2023-03-22T00:23:22;99449.03;;;4.19;81.67
44198;BME280;30157;55.512;37.764;2023-03-22T00:25:49;99454.13;;;4.16;81.84
44198;BME280;30157;55.512;37.764;2023-03-22T00:28:15;99431.72;;;4.06;81.91
44198;BME280;30157;55.512;37.764;2023-03-22T00:30:41;99449.88;;;4.20;82.04
44198;BME280;30157;55.512;37.764;2023-03-22T00:33:07;99455.03;;;4.20;81.83
44198;BME280;30157;55.512;37.764;2023-03-22T00:35:33;99463.59;;;4.19;81.91
44198;BME280;30157;55.512;37.764;2023-03-22T00:37:59;99351.19;;;3.46;82.36
44198;BME280;30157;55.512;37.764;2023-03-22T00:40:31;99399.38;;;3.62;82.86
44198;BME280;30157;55.512;37.764;2023-03-22T00:43:02;99470.19;;;4.01;83.43
44198;BME280;30157;55.512;37.764;2023-03-22T00:45:28;99471.78;;;3.96;84.09
44198;BME280;30157;55.512;37.764;2023-03-22T00:47:54;99410.44;;;3.58;84.40
44198;BME280;30157;55.512;37.764;2023-03-22T00:50:19;99482.88;;;3.94;84.61
44198;BME280;30157;55.512;37.764;2023-03-22T00:52:45;99428.50;;;3.67;84.24
44198;BME280;30157;55.512;37.764;2023-03-22T00:55:11;99458.88;;;3.92;84.13
44198;BME280;30157;55.512;37.764;2023-03-22T00:57:38;99463.97;;;3.89;84.85
44198;BME280;30157;55.512;37.764;2023-03-22T01:00:04;99460.44;;;3.82;84.87
44198;BME280;30157;55.512;37.764;2023-03-22T01:02:39;99457.81;;;3.79;84.78
44198;BME280;30157;55.512;37.764;2023-03-22T01:05:09;99455.28;;;3.82;84.67
44198;BME280;30157;55.512;37.764;2023-03-22T01:07:43;99452.91;;;3.93;84.33
44198;BME280;30157;55.512;37.764;2023-03-22T01:10:12;99350.00;;;3.27;83.91
44198;BME280;30157;55.512;37.764;2023-03-22T01:12:38;99494.34;;;4.14;84.10
44198;BME280;30157;55.512;37.764;2023-03-22T01:15:05;99403.59;;;3.60;84.11
44198;BME280;30157;55.512;37.764;2023-03-22T01:17:31;99388.81;;;3.45;84.06
44198;BME280;30157;55.512;37.764;2023-03-22T01:19:56;99500.34;;;4.13;84.19
44198;BME280;30157;55.512;37.764;2023-03-22T01:22:22;99411.25;;;3.57;84.27
44198;BME280;30157;55.512;37.764;2023-03-22T01:24:49;99424.06;;;3.56;84.56
44198;BME280;30157;55.512;37.764;2023-03-22T01:27:15;99504.44;;;4.05;84.74
44198;BME280;30157;55.512;37.764;2023-03-22T01:29:45;99394.72;;;3.40;84.66
44198;BME280;30157;55.512;37.764;2023-03-22T01:32:10;99515.53;;;4.02;85.44
44198;BME280;30157;55.512;37.764;2023-03-22T01:34:37;99495.59;;;3.87;85.08
44198;BME280;30157;55.512;37.764;2023-03-22T01:37:03;99523.25;;;4.02;85.15
44198;BME280;30157;55.512;37.764;2023-03-22T01:39:30;99520.59;;;3.96;85.62
44198;BME280;30157;55.512;37.764;2023-03-22T01:42:01;99438.38;;;3.44;85.28
44198;BME280;30157;55.512;37.764;2023-03-22T01:44:28;99393.59;;;3.25;85.35
44198;BME280;30157;55.512;37.764;2023-03-22T01:46:58;99529.25;;;4.03;85.36
44198;BME280;30157;55.512;37.764;2023-03-22T01:49:29;99531.00;;;4.04;85.38
44198;BME280;30157;55.512;37.764;2023-03-22T01:52:04;99516.31;;;3.97;85.48
44198;BME280;30157;55.512;37.764;2023-03-22T01:54:53;99437.56;;;3.45;85.46
44198;BME280;30157;55.512;37.764;2023-03-22T01:57:45;99497.16;;;3.78;85.31
44198;BME280;30157;55.512;37.764;2023-03-22T02:00:23;99547.19;;;4.00;85.39
44198;BME280;30157;55.512;37.764;2023-03-22T02:03:24;99160.97;;;1.71;85.13
44198;BME280;30157;55.512;37.764;2023-03-22T02:05:55;99431.28;;;3.29;85.54
44198;BME280;30157;55.512;37.764;2023-03-22T02:08:23;99507.47;;;3.81;85.15
44198;BME280;30157;55.512;37.764;2023-03-22T02:10:56;99523.13;;;3.95;85.03
44198;BME280;30157;55.512;37.764;2023-03-22T02:25:33;99557.41;;;3.98;84.82
44198;BME280;30157;55.512;37.764;2023-03-22T02:28:27;99480.38;;;3.48;84.60
44198;BME280;30157;55.512;37.764;2023-03-22T02:31:33;99471.69;;;3.41;84.55
44198;BME280;30157;55.512;37.764;2023-03-22T02:39:55;99468.34;;;3.45;83.87
44198;BME280;30157;55.512;37.764;2023-03-22T02:45:25;99578.00;;;4.00;83.71
44198;BME280;30157;55.512;37.764;2023-03-22T02:50:51;99461.31;;;3.35;83.65
44198;BME280;30157;55.512;37.764;2023-03-22T02:53:23;99572.91;;;4.01;83.46
44198;BME280;30157;55.512;37.764;2023-03-22T02:56:13;99545.34;;;3.94;83.48
44198;BME280;30157;55.512;37.764;2023-03-22T02:58:47;99467.41;;;3.42;83.27
44198;BME280;30157;55.512;37.764;2023-03-22T03:01:27;99571.91;;;3.93;83.28
44198;BME280;30157;55.512;37.764;2023-03-22T03:03:56;99480.19;;;3.39;83.15
44198;BME280;30157;55.512;37.764;2023-03-22T03:06:28;99537.28;;;3.73;83.19
44198;BME280;30157;55.512;37.764;2023-03-22T03:08:59;99583.00;;;3.92;83.24
44198;BME280;30157;55.512;37.764;2023-03-22T03:11:30;99488.53;;;3.28;83.24
44198;BME280;30157;55.512;37.764;2023-03-22T03:13:56;99582.03;;;3.85;83.66
44198;BME280;30157;55.512;37.764;2023-03-22T03:16:26;99607.13;;;4.00;83.58
44198;BME280;30157;55.512;37.764;2023-03-22T03:19:00;99607.91;;;3.98;83.19
44198;BME280;30157;55.512;37.764;2023-03-22T03:21:52;99612.22;;;3.99;83.18
44198;BME280;30157;55.512;37.764;2023-03-22T03:24:26;99606.94;;;3.91;83.25
44198;BME280;30157;55.512;37.764;2023-03-22T03:27:06;99520.41;;;3.38;83.31
44198;BME280;30157;55.512;37.764;2023-03-22T03:32:33;99528.09;;;3.38;83.20
44198;BME280;30157;55.512;37.764;2023-03-22T03:35:24;99630.16;;;3.96;83.41
44198;BME280;30157;55.512;37.764;2023-03-22T03:37:58;99614.56;;;3.86;83.09
44198;BME280;30157;55.512;37.764;2023-03-22T03:40:31;99636.00;;;3.90;83.50
44198;BME280;30157;55.512;37.764;2023-03-22T03:43:01;99232.00;;;1.43;83.34
44198;BME280;30157;55.512;37.764;2023-03-22T03:45:29;99541.78;;;3.39;83.20
44198;BME280;30157;55.512;37.764;2023-03-22T03:48:02;99568.56;;;3.51;83.64
44198;BME280;30157;55.512;37.764;2023-03-22T03:50:30;99641.28;;;3.96;83.47
44198;BME280;30157;55.512;37.764;2023-03-22T03:52:56;99643.00;;;3.96;83.53
44198;BME280;30157;55.512;37.764;2023-03-22T03:55:23;99537.28;;;3.28;83.70
44198;BME280;30157;55.512;37.764;2023-03-22T03:57:49;99642.09;;;3.94;83.98
44198;BME280;30157;55.512;37.764;2023-03-22T04:00:15;99537.19;;;3.22;84.06
44198;BME280;30157;55.512;37.764;2023-03-22T04:03:12;99647.06;;;3.86;84.33
44198;BME280;30157;55.512;37.764;2023-03-22T04:05:53;99656.63;;;3.93;84.05
44198;BME280;30157;55.512;37.764;2023-03-22T04:08:19;99653.28;;;3.96;83.90
44198;BME280;30157;55.512;37.764;2023-03-22T04:10:49;99655.84;;;3.96;84.28
44198;BME280;30157;55.512;37.764;2023-03-22T04:13:18;99665.16;;;3.92;84.11
44198;BME280;30157;55.512;37.764;2023-03-22T04:15:50;99554.34;;;3.26;84.41
44198;BME280;30157;55.512;37.764;2023-03-22T04:18:16;99640.13;;;3.80;84.64
44198;BME280;30157;55.512;37.764;2023-03-22T04:20:45;99673.72;;;3.91;84.71
44198;BME280;30157;55.512;37.764;2023-03-22T04:23:11;99683.00;;;3.86;84.97
44198;BME280;30157;55.512;37.764;2023-03-22T04:25:41;99672.00;;;3.92;84.90
44198;BME280;30157;55.512;37.764;2023-03-22T04:28:10;99556.91;;;3.26;84.84
44198;BME280;30157;55.512;37.764;2023-03-22T04:30:41;99679.84;;;3.99;84.93
44198;BME280;30157;55.512;37.764;2023-03-22T04:33:10;99649.63;;;3.86;84.59
44198;BME280;30157;55.512;37.764;2023-03-22T04:35:56;99681.75;;;4.08;84.74
44198;BME280;30157;55.512;37.764;2023-03-22T04:38:27;99689.47;;;4.10;84.63
44198;BME280;30157;55.512;37.764;2023-03-22T04:40:54;99691.25;;;4.12;84.68
44198;BME280;30157;55.512;37.764;2023-03-22T04:43:34;99655.69;;;3.90;84.45
44198;BME280;30157;55.512;37.764;2023-03-22T04:46:06;99697.25;;;4.13;84.44
44198;BME280;30157;55.512;37.764;2023-03-22T04:48:40;99693.84;;;4.14;84.25
44198;BME280;30157;55.512;37.764;2023-03-22T04:51:11;99702.38;;;4.13;84.43
44198;BME280;30157;55.512;37.764;2023-03-22T04:53:44;99703.19;;;4.10;84.11
44198;BME280;30157;55.512;37.764;2023-03-22T04:56:13;99703.97;;;4.08;84.22
44198;BME280;30157;55.512;37.764;2023-03-22T04:58:42;99708.31;;;4.10;84.17
44198;BME280;30157;55.512;37.764;2023-03-22T05:01:09;99671.25;;;3.96;84.31
44198;BME280;30157;55.512;37.764;2023-03-22T05:03:38;99693.69;;;4.06;84.11
44198;BME280;30157;55.512;37.764;2023-03-22T05:06:06;99711.03;;;4.18;84.24
44198;BME280;30157;55.512;37.764;2023-03-22T05:09:01;99621.19;;;3.75;83.85
44198;BME280;30157;55.512;37.764;2023-03-22T05:11:27;99579.47;;;3.41;83.66
44198;BME280;30157;55.512;37.764;2023-03-22T05:14:17;99720.72;;;4.31;83.78
44198;BME280;30157;55.512;37.764;2023-03-22T05:16:43;99647.03;;;3.84;84.00
44198;BME280;30157;55.512;37.764;2023-03-22T05:19:08;99718.78;;;4.19;84.12
44198;BME280;30157;55.512;37.764;2023-03-22T05:21:45;99715.97;;;4.07;84.53
44198;BME280;30157;55.512;37.764;2023-03-22T05:24:11;99599.78;;;3.32;84.81
44198;BME280;30157;55.512;37.764;2023-03-22T05:26:38;99731.25;;;4.01;85.24
44198;BME280;30157;55.512;37.764;2023-03-22T05:29:11;99738.88;;;3.96;85.14
44198;BME280;30157;55.512;37.764;2023-03-22T05:32:10;99740.59;;;3.97;85.29
44198;BME280;30157;55.512;37.764;2023-03-22T05:34:39;99743.19;;;3.97;85.30
44198;BME280;30157;55.512;37.764;2023-03-22T05:37:20;99744.16;;;4.04;85.21
44198;BME280;30157;55.512;37.764;2023-03-22T05:39:57;99739.84;;;4.03;85.04
44198;BME280;30157;55.512;37.764;2023-03-22T05:42:31;99758.00;;;4.11;85.02
44198;BME280;30157;55.512;37.764;2023-03-22T05:44:59;99641.22;;;3.50;84.87
44198;BME280;30157;55.512;37.764;2023-03-22T05:47:25;99750.53;;;4.23;84.61
44198;BME280;30157;55.512;37.764;2023-03-22T05:50:06;99753.25;;;4.31;84.47
44198;BME280;30157;55.512;37.764;2023-03-22T05:52:33;99732.34;;;4.12;84.37
44198;BME280;30157;55.512;37.764;2023-03-22T05:55:24;99766.13;;;4.32;84.50
44198;BME280;30157;55.512;37.764;2023-03-22T05:57:57;99738.50;;;4.20;84.26
44198;BME280;30157;55.512;37.764;2023-03-22T06:00:24;99766.47;;;4.51;83.88
44198;BME280;30157;55.512;37.764;2023-03-22T06:03:08;99768.50;;;4.67;83.45
44198;BME280;30157;55.512;37.764;2023-03-22T06:05:39;99767.78;;;4.76;83.26
44198;BME280;30157;55.512;37.764;2023-03-22T06:08:07;99746.28;;;4.71;83.29
44198;BME280;30157;55.512;37.764;2023-03-22T06:10:32;99776.84;;;5.03;82.77
44198;BME280;30157;55.512;37.764;2023-03-22T06:12:58;99768.25;;;5.56;82.09
44198;BME280;30157;55.512;37.764;2023-03-22T06:15:27;99759.31;;;6.67;79.53
44198;BME280;30157;55.512;37.764;2023-03-22T06:17:56;99784.72;;;7.16;78.24
44198;BME280;30157;55.512;37.764;2023-03-22T06:20:25;99777.31;;;7.64;76.68
44198;BME280;30157;55.512;37.764;2023-03-22T06:22:58;99776.66;;;7.99;74.51
44198;BME280;30157;55.512;37.764;2023-03-22T06:25:24;99751.34;;;7.43;73.99
44198;BME280;30157;55.512;37.764;2023-03-22T06:27:51;99673.06;;;6.36;73.53
44198;BME280;30157;55.512;37.764;2023-03-22T06:30:22;99789.13;;;6.41;75.17
44198;BME280;30157;55.512;37.764;2023-03-22T06:33:11;99753.06;;;5.76;76.53
44198;BME280;30157;55.512;37.764;2023-03-22T06:35:40;99771.88;;;5.70;76.99
44198;BME280;30157;55.512;37.764;2023-03-22T06:38:10;99771.69;;;5.58;77.47
44198;BME280;30157;55.512;37.764;2023-03-22T06:40:38;99666.88;;;4.90;77.07
44198;BME280;30157;55.512;37.764;2023-03-22T06:43:04;99759.16;;;5.23;77.76
44198;BME280;30157;55.512;37.764;2023-03-22T06:45:31;99797.97;;;5.37;78.11
44198;BME280;30157;55.512;37.764;2023-03-22T06:48:03;99801.31;;;5.31;78.22
44198;BME280;30157;55.512;37.764;2023-03-22T06:50:46;99801.31;;;5.31;77.69
44198;BME280;30157;55.512;37.764;2023-03-22T06:53:14;99792.69;;;5.28;77.95
44198;BME280;30157;55.512;37.764;2023-03-22T06:55:39;99762.22;;;5.00;78.14
44198;BME280;30157;55.512;37.764;2023-03-22T06:58:17;99801.81;;;5.10;78.57
44198;BME280;30157;55.512;37.764;2023-03-22T07:00:43;99793.09;;;5.02;78.65
44198;BME280;30157;55.512;37.764;2023-03-22T07:03:09;99732.22;;;4.52;78.74
44198;BME280;30157;55.512;37.764;2023-03-22T07:05:45;99726.63;;;4.27;78.98
44198;BME280;30157;55.512;37.764;2023-03-22T07:08:11;99689.09;;;3.91;79.40
44198;BME280;30157;55.512;37.764;2023-03-22T07:10:48;99702.56;;;3.79;80.02
44198;BME280;30157;55.512;37.764;2023-03-22T07:13:13;99812.44;;;4.35;80.71
44198;BME280;30157;55.512;37.764;2023-03-22T07:15:39;99708.38;;;3.70;80.91
44198;BME280;30157;55.512;37.764;2023-03-22T07:18:25;99820.06;;;4.31;80.98
44198;BME280;30157;55.512;37.764;2023-03-22T07:20:55;99814.88;;;4.29;80.70
44198;BME280;30157;55.512;37.764;2023-03-22T07:23:21;99825.28;;;4.35;81.09
44198;BME280;30157;55.512;37.764;2023-03-22T07:25:50;99827.88;;;4.37;80.92
44198;BME280;30157;55.512;37.764;2023-03-22T07:28:26;99832.22;;;4.40;80.77
44198;BME280;30157;55.512;37.764;2023-03-22T07:31:04;99811.53;;;4.33;80.68
44198;BME280;30157;55.512;37.764;2023-03-22T07:33:51;99793.50;;;4.30;79.85
44198;BME280;30157;55.512;37.764;2023-03-22T07:36:20;99846.41;;;4.62;79.21
44198;BME280;30157;55.512;37.764;2023-03-22T07:38:50;99832.78;;;4.67;78.93
44198;BME280;30157;55.512;37.764;2023-03-22T07:41:23;99839.22;;;4.91;78.08
44198;BME280;30157;55.512;37.764;2023-03-22T07:44:06;99847.38;;;5.14;77.41
44198;BME280;30157;55.512;37.764;2023-03-22T07:46:38;99844.06;;;5.21;76.39
44198;BME280;30157;55.512;37.764;2023-03-22T07:49:30;99853.59;;;5.29;75.63
44198;BME280;30157;55.512;37.764;2023-03-22T07:52:08;99868.06;;;5.22;75.60
44198;BME280;30157;55.512;37.764;2023-03-22T07:54:33;99876.69;;;5.24;75.65
44198;BME280;30157;55.512;37.764;2023-03-22T07:57:00;99870.75;;;5.28;75.58
44198;BME280;30157;55.512;37.764;2023-03-22T07:59:28;99874.50;;;5.46;75.28
44198;BME280;30157;55.512;37.764;2023-03-22T08:01:55;99830.03;;;5.56;74.20
44198;BME280;30157;55.512;37.764;2023-03-22T08:04:29;99784.72;;;5.67;73.42
44198;BME280;30157;55.512;37.764;2023-03-22T08:07:20;99835.53;;;6.41;72.01
44198;BME280;30157;55.512;37.764;2023-03-22T08:09:46;99740.91;;;6.32;70.38
44198;BME280;30157;55.512;37.764;2023-03-22T08:12:12;99859.38;;;7.98;69.08
44198;BME280;30157;55.512;37.764;2023-03-22T08:14:41;99849.47;;;10.16;64.15
44198;BME280;30157;55.512;37.764;2023-03-22T08:17:17;99813.66;;;11.01;59.66
44198;BME280;30157;55.512;37.764;2023-03-22T08:19:43;99848.88;;;11.35;59.54
44198;BME280;30157;55.512;37.764;2023-03-22T08:22:13;99861.06;;;11.26;59.00
44198;BME280;30157;55.512;37.764;2023-03-22T08:24:58;99733.50;;;10.49;57.22
44198;BME280;30157;55.512;37.764;2023-03-22T08:27:28;99854.41;;;10.87;57.47
44198;BME280;30157;55.512;37.764;2023-03-22T08:29:56;99828.66;;;10.37;56.62
44198;BME280;30157;55.512;37.764;2023-03-22T08:32:23;99775.19;;;9.93;57.44
44198;BME280;30157;55.512;37.764;2023-03-22T08:34:48;99837.44;;;9.71;58.02
44198;BME280;30157;55.512;37.764;2023-03-22T08:37:14;99865.91;;;9.10;59.85
44198;BME280;30157;55.512;37.764;2023-03-22T08:39:43;99875.25;;;8.64;61.10
44198;BME280;30157;55.512;37.764;2023-03-22T08:42:20;99870.72;;;8.26;62.21
44198;BME280;30157;55.512;37.764;2023-03-22T08:44:46;99769.44;;;7.46;62.47
44198;BME280;30157;55.512;37.764;2023-03-22T08:47:12;99859.38;;;8.01;62.56
44198;BME280;30157;55.512;37.764;2023-03-22T08:49:40;99800.41;;;7.41;62.58
44198;BME280;30157;55.512;37.764;2023-03-22T08:52:14;99836.78;;;7.67;63.17
44198;BME280;30157;55.512;37.764;2023-03-22T08:54:53;99795.16;;;7.32;63.08
44198;BME280;30157;55.512;37.764;2023-03-22T08:57:38;99737.22;;;6.96;62.94
44198;BME280;30157;55.512;37.764;2023-03-22T09:00:24;99874.72;;;7.79;62.56
44198;BME280;30157;55.512;37.764;2023-03-22T09:02:57;99753.69;;;7.05;62.38
44198;BME280;30157;55.512;37.764;2023-03-22T09:05:22;99823.63;;;7.38;62.54
44198;BME280;30157;55.512;37.764;2023-03-22T09:07:52;99767.22;;;6.83;62.69
44198;BME280;30157;55.512;37.764;2023-03-22T09:10:31;99812.09;;;6.99;62.78
44198;BME280;30157;55.512;37.764;2023-03-22T09:12:58;99870.16;;;7.43;63.01
44198;BME280;30157;55.512;37.764;2023-03-22T09:15:26;99861.75;;;7.68;62.39
44198;BME280;30157;55.512;37.764;2023-03-22T09:18:10;99829.19;;;7.98;60.92
44198;BME280;30157;55.512;37.764;2023-03-22T09:20:37;99870.84;;;8.43;60.40
44198;BME280;30157;55.512;37.764;2023-03-22T09:23:05;99819.81;;;8.14;60.11
44198;BME280;30157;55.512;37.764;2023-03-22T09:25:31;99881.31;;;8.71;59.51
44198;BME280;30157;55.512;37.764;2023-03-22T09:27:57;99888.28;;;8.89;58.37
44198;BME280;30157;55.512;37.764;2023-03-22T09:30:25;99837.28;;;8.57;57.26
44198;BME280;30157;55.512;37.764;2023-03-22T09:32:51;99884.78;;;8.73;57.32
44198;BME280;30157;55.512;37.764;2023-03-22T09:35:18;99881.31;;;8.62;56.85
44198;BME280;30157;55.512;37.764;2023-03-22T09:38:03;99884.69;;;8.56;57.26
44198;BME280;30157;55.512;37.764;2023-03-22T09:40:31;99887.38;;;8.73;57.11
44198;BME280;30157;55.512;37.764;2023-03-22T09:43:06;99877.88;;;8.72;55.12
44198;BME280;30157;55.512;37.764;2023-03-22T09:45:46;99896.06;;;8.89;55.53
44198;BME280;30157;55.512;37.764;2023-03-22T09:48:21;99895.19;;;8.91;55.86
44198;BME280;30157;55.512;37.764;2023-03-22T09:50:53;99808.03;;;8.80;55.63
44198;BME280;30157;55.512;37.764;2023-03-22T09:53:21;99893.59;;;9.94;54.56
44198;BME280;30157;55.512;37.764;2023-03-22T09:58:51;99857.28;;;9.94;52.68
44198;BME280;30157;55.512;37.764;2023-03-22T10:01:32;99883.13;;;10.28;51.42
44198;BME280;30157;55.512;37.764;2023-03-22T10:04:22;99881.34;;;10.64;52.26
44198;BME280;30157;55.512;37.764;2023-03-22T10:07:12;99883.16;;;10.42;49.99
44198;BME280;30157;55.512;37.764;2023-03-22T10:09:59;99883.13;;;10.40;51.13
44198;BME280;30157;55.512;37.764;2023-03-22T10:12:51;99886.59;;;10.25;50.57
44198;BME280;30157;55.512;37.764;2023-03-22T10:18:02;99828.44;;;10.82;50.10
44198;BME280;30157;55.512;37.764;2023-03-22T10:20:48;99847.03;;;11.51;46.71
44198;BME280;30157;55.512;37.764;2023-03-22T10:23:20;99866.66;;;11.86;48.55
44198;BME280;30157;55.512;37.764;2023-03-22T10:25:46;99869.34;;;11.80;48.18
44198;BME280;30157;55.512;37.764;2023-03-22T10:28:22;99784.78;;;11.38;47.32
44198;BME280;30157;55.512;37.764;2023-03-22T10:30:56;99873.91;;;11.48;46.56
44198;BME280;30157;55.512;37.764;2023-03-22T10:36:02;99816.38;;;10.76;48.13
44198;BME280;30157;55.512;37.764;2023-03-22T10:38:29;99878.72;;;10.66;49.07
44198;BME280;30157;55.512;37.764;2023-03-22T10:40:58;99879.66;;;10.55;49.49
44198;BME280;30157;55.512;37.764;2023-03-22T10:43:37;99878.81;;;10.30;49.64
44198;BME280;30157;55.512;37.764;2023-03-22T10:46:10;99874.50;;;10.14;50.02
44198;BME280;30157;55.512;37.764;2023-03-22T10:48:43;99869.41;;;9.66;51.04
44198;BME280;30157;55.512;37.764;2023-03-22T10:51:35;99878.06;;;9.49;51.80
44198;BME280;30157;55.512;37.764;2023-03-22T10:54:04;99873.63;;;8.86;53.11
44198;BME280;30157;55.512;37.764;2023-03-22T10:56:33;99679.88;;;7.37;53.86
44198;BME280;30157;55.512;37.764;2023-03-22T10:58:59;99708.94;;;7.06;55.15
44198;BME280;30157;55.512;37.764;2023-03-22T11:01:32;99877.44;;;7.96;55.63
44198;BME280;30157;55.512;37.764;2023-03-22T11:06:31;99874.72;;;7.74;56.18
44198;BME280;30157;55.512;37.764;2023-03-22T11:09:09;99872.00;;;7.57;57.00
44198;BME280;30157;55.512;37.764;2023-03-22T11:11:54;99886.38;;;7.32;58.38
44198;BME280;30157;55.512;37.764;2023-03-22T11:14:28;99892.31;;;7.19;59.16
44198;BME280;30157;55.512;37.764;2023-03-22T11:16:59;99796.13;;;6.51;58.90
44198;BME280;30157;55.512;37.764;2023-03-22T11:19:26;99899.97;;;7.10;58.82
44198;BME280;30157;55.512;37.764;2023-03-22T11:21:57;99911.09;;;7.05;60.10
44198;BME280;30157;55.512;37.764;2023-03-22T11:24:25;99798.56;;;6.40;59.93
44198;BME280;30157;55.512;37.764;2023-03-22T11:27:27;99855.00;;;6.89;59.69
44198;BME280;30157;55.512;37.764;2023-03-22T11:30:19;99890.69;;;7.30;58.91
44198;BME280;30157;55.512;37.764;2023-03-22T11:32:46;99893.28;;;7.33;58.98
44198;BME280;30157;55.512;37.764;2023-03-22T11:37:48;99894.75;;;7.06;60.40
44198;BME280;30157;55.512;37.764;2023-03-22T11:40:21;99880.63;;;6.73;61.60
44198;BME280;30157;55.512;37.764;2023-03-22T11:42:51;99864.00;;;6.50;61.79
44198;BME280;30157;55.512;37.764;2023-03-22T11:45:26;99893.44;;;6.69;62.97
44198;BME280;30157;55.512;37.764;2023-03-22T11:47:53;99810.28;;;6.13;63.85
44198;BME280;30157;55.512;37.764;2023-03-22T11:50:38;99870.94;;;6.55;65.95
44198;BME280;30157;55.512;37.764;2023-03-22T11:53:12;99891.19;;;6.94;64.91
44198;BME280;30157;55.512;37.764;2023-03-22T11:55:40;99777.34;;;6.63;63.99
44198;BME280;30157;55.512;37.764;2023-03-22T11:58:06;99817.28;;;7.03;63.41
44198;BME280;30157;55.512;37.764;2023-03-22T12:00:34;99896.13;;;7.61;63.31
44198;BME280;30157;55.512;37.764;2023-03-22T12:03:10;99866.75;;;7.50;63.37
44198;BME280;30157;55.512;37.764;2023-03-22T12:05:39;99806.34;;;7.29;62.92
44198;BME280;30157;55.512;37.764;2023-03-22T12:08:11;99879.22;;;8.02;62.34
44198;BME280;30157;55.512;37.764;2023-03-22T12:10:43;99864.75;;;8.33;60.90
44198;BME280;30157;55.512;37.764;2023-03-22T12:13:15;99876.97;;;8.57;60.75
44198;BME280;30157;55.512;37.764;2023-03-22T12:15:45;99878.75;;;8.72;60.17
44198;BME280;30157;55.512;37.764;2023-03-22T12:18:46;99878.75;;;8.79;59.87
44198;BME280;30157;55.512;37.764;2023-03-22T12:21:13;99851.06;;;8.53;59.53
44198;BME280;30157;55.512;37.764;2023-03-22T12:23:40;99858.81;;;8.48;59.91
44198;BME280;30157;55.512;37.764;2023-03-22T12:26:13;99878.59;;;8.43;60.34
44198;BME280;30157;55.512;37.764;2023-03-22T12:29:13;99869.94;;;8.41;59.94
44198;BME280;30157;55.512;37.764;2023-03-22T12:32:20;99869.22;;;8.57;59.85
44198;BME280;30157;55.512;37.764;2023-03-22T12:34:49;99869.13;;;8.45;59.64
44198;BME280;30157;55.512;37.764;2023-03-22T12:37:41;99869.94;;;8.41;59.56
44198;BME280;30157;55.512;37.764;2023-03-22T12:45:40;99885.28;;;8.12;60.30
44198;BME280;30157;55.512;37.764;2023-03-22T12:48:44;99794.50;;;7.57;60.23
44198;BME280;30157;55.512;37.764;2023-03-22T12:51:14;99863.56;;;7.82;60.63
44198;BME280;30157;55.512;37.764;2023-03-22T12:56:41;99741.47;;;6.89;61.28
44198;BME280;30157;55.512;37.764;2023-03-22T12:59:15;99860.75;;;7.51;61.59
44198;BME280;30157;55.512;37.764;2023-03-22T13:09:59;99857.13;;;7.30;62.05
44198;BME280;30157;55.512;37.764;2023-03-22T13:12:32;99826.81;;;7.07;62.36
44198;BME280;30157;55.512;37.764;2023-03-22T13:15:01;99843.19;;;7.13;62.49
44198;BME280;30157;55.512;37.764;2023-03-22T13:30:55;99846.31;;;6.84;63.24
44198;BME280;30157;55.512;37.764;2023-03-22T13:33:27;99833.34;;;6.75;63.33
44198;BME280;30157;55.512;37.764;2023-03-22T13:38:31;99833.38;;;6.78;63.14
44198;BME280;30157;55.512;37.764;2023-03-22T13:41:03;99854.28;;;7.02;62.74
44198;BME280;30157;55.512;37.764;2023-03-22T13:43:45;99811.19;;;6.95;62.46
44198;BME280;30157;55.512;37.764;2023-03-22T13:46:26;99742.19;;;6.72;62.16
44198;BME280;30157;55.512;37.764;2023-03-22T13:48:56;99846.91;;;7.46;61.74
44198;BME280;30157;55.512;37.764;2023-03-22T13:51:37;99808.91;;;7.26;61.47
44198;BME280;30157;55.512;37.764;2023-03-22T14:01:53;99715.75;;;7.00;60.19
44198;BME280;30157;55.512;37.764;2023-03-22T14:04:27;99835.00;;;7.63;60.25
44198;BME280;30157;55.512;37.764;2023-03-22T14:06:57;99816.81;;;7.45;60.50
44198;BME280;30157;55.512;37.764;2023-03-22T14:09:37;99726.00;;;6.89;60.58
44198;BME280;30157;55.512;37.764;2023-03-22T14:12:27;99828.00;;;7.50;60.65
44198;BME280;30157;55.512;37.764;2023-03-22T14:14:59;99826.25;;;7.43;60.79
44198;BME280;30157;55.512;37.764;2023-03-22T14:17:38;99828.00;;;7.50;60.78
44198;BME280;30157;55.512;37.764;2023-03-22T14:20:14;99814.19;;;7.42;60.51
44198;BME280;30157;55.512;37.764;2023-03-22T14:22:51;99823.66;;;7.39;60.86
44198;BME280;30157;55.512;37.764;2023-03-22T14:25:24;99824.41;;;7.28;61.17
44198;BME280;30157;55.512;37.764;2023-03-22T14:27:51;99818.31;;;7.21;61.12
44198;BME280;30157;55.512;37.764;2023-03-22T14:30:37;99820.78;;;7.09;61.17
44198;BME280;30157;55.512;37.764;2023-03-22T14:33:17;99716.09;;;6.43;61.45
44198;BME280;30157;55.512;37.764;2023-03-22T14:36:05;99825.84;;;6.96;61.57
44198;BME280;30157;55.512;37.764;2023-03-22T14:38:34;99799.00;;;6.79;61.68
44198;BME280;30157;55.512;37.764;2023-03-22T14:41:15;99785.09;;;6.66;61.97
44198;BME280;30157;55.512;37.764;2023-03-22T14:43:49;99816.25;;;6.86;61.96
44198;BME280;30157;55.512;37.764;2023-03-22T14:46:22;99814.44;;;6.76;61.83
44198;BME280;30157;55.512;37.764;2023-03-22T14:48:58;99707.03;;;5.98;62.06
44198;BME280;30157;55.512;37.764;2023-03-22T14:51:31;99724.09;;;5.91;62.49